Date,TemperatureHighF,TemperatureAvgF,TemperatureLowF,DewpointHighF,DewpointAvgF,DewpointLowF,HumidityHigh,HumidityAvg,HumidityLow,PressureMaxIn,PressureMinIn,WindSpeedMaxMPH,WindSpeedAvgMPH,GustSpeedMaxMPH,PrecipitationSumIn
2013-4-1,68,52,40,51,45,39,98,82,43,30.18,30.00,3,0,8,0.00
2013-4-2,58,51,46,49,47,43,97,85,70,30.22,30.16,0,0,8,0.00
2013-4-3,65,52,40,50,45,39,98,81,53,30.20,29.93,1,0,5,0.00
2013-4-4,56,51,47,54,49,45,98,94,83,29.93,29.67,3,0,11,0.30
2013-4-5,57,50,47,53,49,46,98,96,79,29.91,29.75,1,0,11,1.38
2013-4-6,54,46,42,48,44,41,99,94,76,29.97,29.75,4,0,12,1.21
2013-4-7,48,43,39,46,42,38,99,95,87,29.94,29.48,4,0,17,1.27
2013-4-8,53,44,38,46,41,37,99,88,63,30.31,29.94,5,0,11,0.03
2013-4-9,55,44,34,46,40,33,99,87,68,30.37,30.23,1,0,5,0.00
2013-4-10,53,49,44,50,44,40,97,85,73,30.32,30.03,8,1,15,0.25
2013-4-11,54,45,34,43,38,32,98,79,48,30.35,30.21,6,1,16,0.01
2013-4-12,48,38,30,45,37,29,98,93,74,30.22,29.79,6,0,16,0.22
2013-4-13,49,40,34,43,38,33,98,90,70,30.06,29.88,6,1,19,0.20
2013-4-14,47,40,35,44,38,34,99,94,76,30.07,29.97,2,0,11,0.63
2013-4-15,55,42,32,44,36,32,99,83,44,30.20,29.97,4,0,13,0.27
2013-4-16,56,42,32,43,36,32,99,80,43,30.42,30.20,4,0,13,0.27
2013-4-17,57,42,28,44,36,28,99,82,51,30.50,30.42,4,0,12,0.01
2013-4-18,52,46,40,47,43,38,98,89,72,30.49,30.29,1,0,9,0.08
2013-4-19,54,49,46,52,47,45,98,93,75,30.29,30.11,6,1,15,0.36
2013-4-20,55,48,40,49,44,39,98,89,71,30.33,30.27,6,1,12,0.02
2013-4-21,55,46,40,48,42,38,98,86,58,30.36,30.25,5,1,14,0.04
2013-4-22,61,47,36,44,36,27,98,72,32,30.50,30.36,5,1,12,0.03
2013-4-23,64,48,28,38,29,23,98,56,24,30.43,30.22,3,0,12,0.00
2013-4-24,70,52,31,41,34,27,97,57,21,30.33,30.08,4,0,12,0.00
2013-4-25,74,53,34,46,40,33,98,67,33,30.19,30.06,7,1,13,0.00
2013-4-26,75,53,36,50,40,32,98,69,21,30.27,30.19,1,0,7,0.00
2013-4-27,59,48,36,50,43,35,98,84,57,30.27,30.22,0,0,6,0.03
2013-4-28,60,51,46,48,44,40,98,82,50,30.26,30.03,6,0,12,0.15
2013-4-29,54,46,35,47,38,31,97,75,42,30.23,30.02,11,3,23,0.12
2013-4-30,56,43,32,39,33,30,98,71,41,30.48,30.23,6,1,16,0.01